sensor_id;sensor_type;location;lat;lon;timestamp;temperature;humidity
26621;DHT22;14253;44.840;10.444;2022-07-23T00:02:07;27.70;99.90
26621;DHT22;14253;44.840;10.444;2022-07-23T00:04:33;27.70;99.90
26621;DHT22;14253;44.840;10.444;2022-07-23T00:06:59;27.60;99.90
26621;DHT22;14253;44.840;10.444;2022-07-23T00:09:25;27.60;99.90
26621;DHT22;14253;44.840;10.444;2022-07-23T00:11:52;27.60;99.90
26621;DHT22;14253;44.840;10.444;2022-07-23T00:14:18;27.60;99.90
26621;DHT22;14253;44.840;10.444;2022-07-23T00:16:43;27.50;99.90
26621;DHT22;14253;44.840;10.444;2022-07-23T00:19:10;27.60;99.90
26621;DHT22;14253;44.840;10.444;2022-07-23T00:21:35;27.50;99.90
26621;DHT22;14253;44.840;10.444;2022-07-23T00:24:01;27.40;99.90
26621;DHT22;14253;44.840;10.444;2022-07-23T00:26:27;27.50;99.90
26621;DHT22;14253;44.840;10.444;2022-07-23T00:28:53;27.40;99.90
26621;DHT22;14253;44.840;10.444;2022-07-23T00:31:19;27.40;99.90
26621;DHT22;14253;44.840;10.444;2022-07-23T00:33:45;27.30;99.90
26621;DHT22;14253;44.840;10.444;2022-07-23T00:36:11;27.40;99.90
26621;DHT22;14253;44.840;10.444;2022-07-23T00:38:37;27.30;99.90
26621;DHT22;14253;44.840;10.444;2022-07-23T00:41:03;27.20;99.90
26621;DHT22;14253;44.840;10.444;2022-07-23T00:43:29;27.20;99.90
26621;DHT22;14253;44.840;10.444;2022-07-23T00:45:55;27.10;99.90
26621;DHT22;14253;44.840;10.444;2022-07-23T00:48:21;27.10;99.90
26621;DHT22;14253;44.840;10.444;2022-07-23T00:50:47;27.00;99.90
26621;DHT22;14253;44.840;10.444;2022-07-23T00:53:15;27.00;99.90
26621;DHT22;14253;44.840;10.444;2022-07-23T00:55:41;27.00;99.90
26621;DHT22;14253;44.840;10.444;2022-07-23T00:58:08;26.80;99.90
26621;DHT22;14253;44.840;10.444;2022-07-23T01:00:34;26.70;99.90
26621;DHT22;14253;44.840;10.444;2022-07-23T01:03:00;26.70;99.90
26621;DHT22;14253;44.840;10.444;2022-07-23T01:05:27;26.70;99.90
26621;DHT22;14253;44.840;10.444;2022-07-23T01:07:53;26.70;99.90
26621;DHT22;14253;44.840;10.444;2022-07-23T01:10:19;26.60;99.90
26621;DHT22;14253;44.840;10.444;2022-07-23T01:13:08;26.50;99.90
26621;DHT22;14253;44.840;10.444;2022-07-23T01:15:37;26.40;99.90
26621;DHT22;14253;44.840;10.444;2022-07-23T01:18:04;26.40;99.90
26621;DHT22;14253;44.840;10.444;2022-07-23T01:20:32;26.40;99.90
26621;DHT22;14253;44.840;10.444;2022-07-23T01:22:58;26.40;99.90
26621;DHT22;14253;44.840;10.444;2022-07-23T01:25:25;26.40;99.90
26621;DHT22;14253;44.840;10.444;2022-07-23T01:27:56;26.30;99.90
26621;DHT22;14253;44.840;10.444;2022-07-23T01:30:23;26.30;99.90
26621;DHT22;14253;44.840;10.444;2022-07-23T01:32:49;26.30;99.90
26621;DHT22;14253;44.840;10.444;2022-07-23T01:35:16;26.40;99.90
26621;DHT22;14253;44.840;10.444;2022-07-23T01:37:42;26.40;99.90
26621;DHT22;14253;44.840;10.444;2022-07-23T01:40:09;26.40;99.90
26621;DHT22;14253;44.840;10.444;2022-07-23T01:42:36;26.40;99.90
26621;DHT22;14253;44.840;10.444;2022-07-23T01:45:04;26.50;99.90
26621;DHT22;14253;44.840;10.444;2022-07-23T01:47:31;26.40;99.90
26621;DHT22;14253;44.840;10.444;2022-07-23T01:49:57;26.30;99.90
26621;DHT22;14253;44.840;10.444;2022-07-23T01:52:52;26.30;99.90
26621;DHT22;14253;44.840;10.444;2022-07-23T01:55:18;26.20;99.90
26621;DHT22;14253;44.840;10.444;2022-07-23T01:57:46;26.20;99.90
26621;DHT22;14253;44.840;10.444;2022-07-23T02:00:13;26.00;99.90
26621;DHT22;14253;44.840;10.444;2022-07-23T02:02:39;25.90;99.90
26621;DHT22;14253;44.840;10.444;2022-07-23T02:05:05;25.90;99.90
26621;DHT22;14253;44.840;10.444;2022-07-23T02:07:32;25.90;99.90
26621;DHT22;14253;44.840;10.444;2022-07-23T02:10:00;25.90;99.90
26621;DHT22;14253;44.840;10.444;2022-07-23T02:12:26;25.90;99.90
26621;DHT22;14253;44.840;10.444;2022-07-23T02:14:52;25.80;99.90
26621;DHT22;14253;44.840;10.444;2022-07-23T02:17:18;25.80;99.90
26621;DHT22;14253;44.840;10.444;2022-07-23T02:19:44;25.80;99.90
26621;DHT22;14253;44.840;10.444;2022-07-23T02:22:10;25.80;99.90
26621;DHT22;14253;44.840;10.444;2022-07-23T02:24:36;25.90;99.90
26621;DHT22;14253;44.840;10.444;2022-07-23T02:27:02;25.80;99.90
26621;DHT22;14253;44.840;10.444;2022-07-23T02:29:28;25.90;99.90
26621;DHT22;14253;44.840;10.444;2022-07-23T02:31:54;25.80;99.90
26621;DHT22;14253;44.840;10.444;2022-07-23T02:34:21;25.70;99.90
26621;DHT22;14253;44.840;10.444;2022-07-23T02:36:47;25.60;99.90
26621;DHT22;14253;44.840;10.444;2022-07-23T02:39:13;25.60;99.90
26621;DHT22;14253;44.840;10.444;2022-07-23T02:41:40;25.40;99.90
26621;DHT22;14253;44.840;10.444;2022-07-23T02:44:07;25.40;99.90
26621;DHT22;14253;44.840;10.444;2022-07-23T02:46:33;25.40;99.90
26621;DHT22;14253;44.840;10.444;2022-07-23T02:49:00;25.40;99.90
26621;DHT22;14253;44.840;10.444;2022-07-23T02:51:26;25.40;99.90
26621;DHT22;14253;44.840;10.444;2022-07-23T02:53:57;25.40;99.90
26621;DHT22;14253;44.840;10.444;2022-07-23T02:56:23;25.30;99.90
26621;DHT22;14253;44.840;10.444;2022-07-23T02:58:49;25.30;99.90
26621;DHT22;14253;44.840;10.444;2022-07-23T03:01:15;25.30;99.90
26621;DHT22;14253;44.840;10.444;2022-07-23T03:03:41;25.10;99.90
26621;DHT22;14253;44.840;10.444;2022-07-23T03:06:07;25.00;99.90
26621;DHT22;14253;44.840;10.444;2022-07-23T03:08:34;25.00;99.90
26621;DHT22;14253;44.840;10.444;2022-07-23T03:11:00;25.10;99.90
26621;DHT22;14253;44.840;10.444;2022-07-23T03:13:26;25.00;99.90
26621;DHT22;14253;44.840;10.444;2022-07-23T03:15:54;24.90;99.90
26621;DHT22;14253;44.840;10.444;2022-07-23T03:18:20;24.80;99.90
26621;DHT22;14253;44.840;10.444;2022-07-23T03:20:46;24.80;99.90
26621;DHT22;14253;44.840;10.444;2022-07-23T03:23:12;24.70;99.90
26621;DHT22;14253;44.840;10.444;2022-07-23T03:25:37;24.60;99.90
26621;DHT22;14253;44.840;10.444;2022-07-23T03:28:04;24.60;99.90
26621;DHT22;14253;44.840;10.444;2022-07-23T03:30:30;24.50;99.90
26621;DHT22;14253;44.840;10.444;2022-07-23T03:32:56;24.40;99.90
26621;DHT22;14253;44.840;10.444;2022-07-23T03:35:22;24.30;99.90
26621;DHT22;14253;44.840;10.444;2022-07-23T03:38:03;24.10;99.90
26621;DHT22;14253;44.840;10.444;2022-07-23T03:40:29;24.00;99.90
26621;DHT22;14253;44.840;10.444;2022-07-23T03:42:56;24.00;99.90
26621;DHT22;14253;44.840;10.444;2022-07-23T03:45:22;23.80;99.90
26621;DHT22;14253;44.840;10.444;2022-07-23T03:47:48;23.70;99.90
26621;DHT22;14253;44.840;10.444;2022-07-23T03:50:14;23.70;99.90
26621;DHT22;14253;44.840;10.444;2022-07-23T03:52:41;23.70;99.90
26621;DHT22;14253;44.840;10.444;2022-07-23T03:55:07;23.60;99.90
26621;DHT22;14253;44.840;10.444;2022-07-23T03:57:34;23.60;99.90
26621;DHT22;14253;44.840;10.444;2022-07-23T04:00:01;23.70;99.90
26621;DHT22;14253;44.840;10.444;2022-07-23T04:02:27;23.70;99.90
26621;DHT22;14253;44.840;10.444;2022-07-23T04:04:54;23.80;99.90
26621;DHT22;14253;44.840;10.444;2022-07-23T04:07:20;23.80;99.90
26621;DHT22;14253;44.840;10.444;2022-07-23T04:09:47;23.90;99.90
26621;DHT22;14253;44.840;10.444;2022-07-23T04:12:14;24.00;99.90
26621;DHT22;14253;44.840;10.444;2022-07-23T04:14:40;24.00;99.90
26621;DHT22;14253;44.840;10.444;2022-07-23T04:17:07;24.00;99.90
26621;DHT22;14253;44.840;10.444;2022-07-23T04:19:33;24.10;99.90
26621;DHT22;14253;44.840;10.444;2022-07-23T04:22:05;24.20;99.90
26621;DHT22;14253;44.840;10.444;2022-07-23T04:24:34;24.20;99.90
26621;DHT22;14253;44.840;10.444;2022-07-23T04:27:01;24.30;99.90
26621;DHT22;14253;44.840;10.444;2022-07-23T04:29:27;24.30;99.90
26621;DHT22;14253;44.840;10.444;2022-07-23T04:31:53;24.30;99.90
26621;DHT22;14253;44.840;10.444;2022-07-23T04:34:19;24.30;99.90
26621;DHT22;14253;44.840;10.444;2022-07-23T04:36:45;24.40;99.90
26621;DHT22;14253;44.840;10.444;2022-07-23T04:39:12;24.40;99.90
26621;DHT22;14253;44.840;10.444;2022-07-23T04:41:38;24.40;99.90
26621;DHT22;14253;44.840;10.444;2022-07-23T04:44:04;24.40;99.90
26621;DHT22;14253;44.840;10.444;2022-07-23T04:46:30;24.40;99.90
26621;DHT22;14253;44.840;10.444;2022-07-23T04:48:56;24.50;99.90
26621;DHT22;14253;44.840;10.444;2022-07-23T04:51:23;24.50;99.90
26621;DHT22;14253;44.840;10.444;2022-07-23T04:53:49;24.50;99.90
26621;DHT22;14253;44.840;10.444;2022-07-23T04:56:15;24.60;99.90
26621;DHT22;14253;44.840;10.444;2022-07-23T04:58:41;24.70;99.90
26621;DHT22;14253;44.840;10.444;2022-07-23T05:01:08;24.80;99.90
26621;DHT22;14253;44.840;10.444;2022-07-23T05:03:35;24.90;99.90
26621;DHT22;14253;44.840;10.444;2022-07-23T05:06:01;24.90;99.90
26621;DHT22;14253;44.840;10.444;2022-07-23T05:08:29;25.00;99.90
26621;DHT22;14253;44.840;10.444;2022-07-23T05:10:57;25.00;99.90
26621;DHT22;14253;44.840;10.444;2022-07-23T05:13:23;25.10;99.90
26621;DHT22;14253;44.840;10.444;2022-07-23T05:15:53;25.20;99.90
26621;DHT22;14253;44.840;10.444;2022-07-23T05:18:19;25.30;99.90
26621;DHT22;14253;44.840;10.444;2022-07-23T05:20:53;25.40;99.90
26621;DHT22;14253;44.840;10.444;2022-07-23T05:23:29;25.40;99.90
26621;DHT22;14253;44.840;10.444;2022-07-23T05:25:55;25.50;99.90
26621;DHT22;14253;44.840;10.444;2022-07-23T05:28:21;25.50;99.90
26621;DHT22;14253;44.840;10.444;2022-07-23T05:30:47;25.60;99.90
26621;DHT22;14253;44.840;10.444;2022-07-23T05:33:18;25.70;99.90
26621;DHT22;14253;44.840;10.444;2022-07-23T05:35:45;25.80;99.90
26621;DHT22;14253;44.840;10.444;2022-07-23T05:38:25;25.90;99.90
26621;DHT22;14253;44.840;10.444;2022-07-23T05:40:53;26.00;99.90
26621;DHT22;14253;44.840;10.444;2022-07-23T05:43:19;26.10;99.90
26621;DHT22;14253;44.840;10.444;2022-07-23T05:45:45;26.20;99.90
26621;DHT22;14253;44.840;10.444;2022-07-23T05:48:12;26.20;99.90
26621;DHT22;14253;44.840;10.444;2022-07-23T05:50:47;26.20;99.90
26621;DHT22;14253;44.840;10.444;2022-07-23T05:53:24;26.20;99.90
26621;DHT22;14253;44.840;10.444;2022-07-23T05:56:00;26.20;99.90
26621;DHT22;14253;44.840;10.444;2022-07-23T05:58:26;26.20;99.90
26621;DHT22;14253;44.840;10.444;2022-07-23T06:00:53;26.40;99.90
26621;DHT22;14253;44.840;10.444;2022-07-23T06:03:19;26.50;99.90
26621;DHT22;14253;44.840;10.444;2022-07-23T06:05:46;26.50;99.90
26621;DHT22;14253;44.840;10.444;2022-07-23T06:08:12;26.60;99.90
26621;DHT22;14253;44.840;10.444;2022-07-23T06:10:37;26.60;99.90
26621;DHT22;14253;44.840;10.444;2022-07-23T06:13:04;26.60;99.90
26621;DHT22;14253;44.840;10.444;2022-07-23T06:15:30;26.60;99.90
26621;DHT22;14253;44.840;10.444;2022-07-23T06:17:57;26.60;99.90
26621;DHT22;14253;44.840;10.444;2022-07-23T06:20:23;26.60;99.90
26621;DHT22;14253;44.840;10.444;2022-07-23T06:22:49;26.60;99.90
26621;DHT22;14253;44.840;10.444;2022-07-23T06:25:15;26.70;99.90
26621;DHT22;14253;44.840;10.444;2022-07-23T06:27:43;26.70;99.90
26621;DHT22;14253;44.840;10.444;2022-07-23T06:30:11;26.70;99.90
26621;DHT22;14253;44.840;10.444;2022-07-23T06:32:37;26.70;99.90
26621;DHT22;14253;44.840;10.444;2022-07-23T06:35:04;26.70;99.90
26621;DHT22;14253;44.840;10.444;2022-07-23T06:37:30;26.80;99.90
26621;DHT22;14253;44.840;10.444;2022-07-23T06:39:56;26.90;99.90
26621;DHT22;14253;44.840;10.444;2022-07-23T06:42:22;27.10;99.90
26621;DHT22;14253;44.840;10.444;2022-07-23T06:44:56;27.30;99.90
26621;DHT22;14253;44.840;10.444;2022-07-23T06:47:22;27.50;99.90
26621;DHT22;14253;44.840;10.444;2022-07-23T06:49:48;27.80;99.90
26621;DHT22;14253;44.840;10.444;2022-07-23T06:52:14;28.10;99.90
26621;DHT22;14253;44.840;10.444;2022-07-23T06:54:40;28.40;99.90
26621;DHT22;14253;44.840;10.444;2022-07-23T06:57:06;28.70;99.90
26621;DHT22;14253;44.840;10.444;2022-07-23T06:59:33;29.20;99.90
26621;DHT22;14253;44.840;10.444;2022-07-23T07:02:02;29.40;99.90
26621;DHT22;14253;44.840;10.444;2022-07-23T07:04:28;29.70;99.90
26621;DHT22;14253;44.840;10.444;2022-07-23T07:06:54;30.10;99.90
26621;DHT22;14253;44.840;10.444;2022-07-23T07:09:20;30.60;99.90
26621;DHT22;14253;44.840;10.444;2022-07-23T07:11:46;30.80;99.90
26621;DHT22;14253;44.840;10.444;2022-07-23T07:14:12;30.80;99.90
26621;DHT22;14253;44.840;10.444;2022-07-23T07:16:38;31.00;99.90
26621;DHT22;14253;44.840;10.444;2022-07-23T07:19:04;31.00;99.90
26621;DHT22;14253;44.840;10.444;2022-07-23T07:21:30;31.20;99.90
26621;DHT22;14253;44.840;10.444;2022-07-23T07:23:56;31.20;99.90
26621;DHT22;14253;44.840;10.444;2022-07-23T07:26:22;31.30;99.90
26621;DHT22;14253;44.840;10.444;2022-07-23T07:28:48;31.20;99.90
26621;DHT22;14253;44.840;10.444;2022-07-23T07:31:14;31.20;99.90
26621;DHT22;14253;44.840;10.444;2022-07-23T07:33:40;31.30;99.90
26621;DHT22;14253;44.840;10.444;2022-07-23T07:36:06;31.50;99.90
26621;DHT22;14253;44.840;10.444;2022-07-23T07:38:32;31.60;99.90
26621;DHT22;14253;44.840;10.444;2022-07-23T07:40:58;31.70;99.90
26621;DHT22;14253;44.840;10.444;2022-07-23T07:43:25;31.60;99.90
26621;DHT22;14253;44.840;10.444;2022-07-23T07:45:51;31.60;99.90
26621;DHT22;14253;44.840;10.444;2022-07-23T07:48:17;31.80;99.90
26621;DHT22;14253;44.840;10.444;2022-07-23T07:50:43;31.90;99.90
26621;DHT22;14253;44.840;10.444;2022-07-23T07:53:09;32.10;99.90
26621;DHT22;14253;44.840;10.444;2022-07-23T07:55:35;32.10;99.90
26621;DHT22;14253;44.840;10.444;2022-07-23T07:58:01;32.10;99.90
26621;DHT22;14253;44.840;10.444;2022-07-23T08:00:28;32.10;99.90
26621;DHT22;14253;44.840;10.444;2022-07-23T08:02:55;32.40;99.90
26621;DHT22;14253;44.840;10.444;2022-07-23T08:05:26;32.20;99.90
26621;DHT22;14253;44.840;10.444;2022-07-23T08:07:53;32.40;99.90
26621;DHT22;14253;44.840;10.444;2022-07-23T08:10:19;32.50;99.90
26621;DHT22;14253;44.840;10.444;2022-07-23T08:12:50;32.40;99.90
26621;DHT22;14253;44.840;10.444;2022-07-23T08:15:18;32.70;99.90
26621;DHT22;14253;44.840;10.444;2022-07-23T08:17:46;32.80;99.90
26621;DHT22;14253;44.840;10.444;2022-07-23T08:20:15;32.60;99.90
26621;DHT22;14253;44.840;10.444;2022-07-23T08:22:46;32.60;99.90
26621;DHT22;14253;44.840;10.444;2022-07-23T08:25:14;32.60;99.90
26621;DHT22;14253;44.840;10.444;2022-07-23T08:27:40;32.60;99.90
26621;DHT22;14253;44.840;10.444;2022-07-23T08:30:07;32.80;99.90
26621;DHT22;14253;44.840;10.444;2022-07-23T08:32:50;32.90;99.90
26621;DHT22;14253;44.840;10.444;2022-07-23T08:35:16;32.90;99.90
26621;DHT22;14253;44.840;10.444;2022-07-23T08:37:42;33.20;99.90
26621;DHT22;14253;44.840;10.444;2022-07-23T08:40:10;33.50;99.90
26621;DHT22;14253;44.840;10.444;2022-07-23T08:42:36;33.50;99.90
26621;DHT22;14253;44.840;10.444;2022-07-23T08:45:03;33.80;99.90
26621;DHT22;14253;44.840;10.444;2022-07-23T08:47:29;34.20;99.90
26621;DHT22;14253;44.840;10.444;2022-07-23T08:49:58;34.50;99.90
26621;DHT22;14253;44.840;10.444;2022-07-23T08:52:25;34.50;99.90
26621;DHT22;14253;44.840;10.444;2022-07-23T08:54:52;34.40;99.90
26621;DHT22;14253;44.840;10.444;2022-07-23T08:57:18;34.50;99.90
26621;DHT22;14253;44.840;10.444;2022-07-23T08:59:44;34.90;99.90
26621;DHT22;14253;44.840;10.444;2022-07-23T09:02:11;35.30;99.90
26621;DHT22;14253;44.840;10.444;2022-07-23T09:04:37;35.00;99.90
26621;DHT22;14253;44.840;10.444;2022-07-23T09:07:03;35.00;99.90
26621;DHT22;14253;44.840;10.444;2022-07-23T09:09:29;34.90;99.90
26621;DHT22;14253;44.840;10.444;2022-07-23T09:12:08;34.70;99.90
26621;DHT22;14253;44.840;10.444;2022-07-23T09:14:41;34.80;99.90
26621;DHT22;14253;44.840;10.444;2022-07-23T09:17:16;34.50;99.90
26621;DHT22;14253;44.840;10.444;2022-07-23T09:19:43;34.60;99.90
26621;DHT22;14253;44.840;10.444;2022-07-23T09:22:29;34.70;99.90
26621;DHT22;14253;44.840;10.444;2022-07-23T09:25:13;35.20;99.90
26621;DHT22;14253;44.840;10.444;2022-07-23T09:27:59;35.50;99.90
26621;DHT22;14253;44.840;10.444;2022-07-23T09:30:31;35.60;99.90
26621;DHT22;14253;44.840;10.444;2022-07-23T09:33:12;35.60;99.90
26621;DHT22;14253;44.840;10.444;2022-07-23T09:35:51;35.80;99.90
26621;DHT22;14253;44.840;10.444;2022-07-23T09:38:19;36.10;99.90
26621;DHT22;14253;44.840;10.444;2022-07-23T09:40:47;36.30;99.90
26621;DHT22;14253;44.840;10.444;2022-07-23T09:43:30;36.40;99.90
26621;DHT22;14253;44.840;10.444;2022-07-23T09:46:16;36.60;99.90
26621;DHT22;14253;44.840;10.444;2022-07-23T09:48:42;36.00;99.90
26621;DHT22;14253;44.840;10.444;2022-07-23T09:51:08;36.10;99.90
26621;DHT22;14253;44.840;10.444;2022-07-23T09:53:34;36.10;99.90
26621;DHT22;14253;44.840;10.444;2022-07-23T09:56:00;36.30;99.90
26621;DHT22;14253;44.840;10.444;2022-07-23T09:58:27;36.00;99.90
26621;DHT22;14253;44.840;10.444;2022-07-23T10:00:54;36.10;99.90
26621;DHT22;14253;44.840;10.444;2022-07-23T10:03:21;36.40;99.90
26621;DHT22;14253;44.840;10.444;2022-07-23T10:06:09;36.10;99.90
26621;DHT22;14253;44.840;10.444;2022-07-23T10:08:58;36.40;99.90
26621;DHT22;14253;44.840;10.444;2022-07-23T10:11:58;36.60;99.90
26621;DHT22;14253;44.840;10.444;2022-07-23T10:14:53;37.20;99.90
26621;DHT22;14253;44.840;10.444;2022-07-23T10:17:19;37.40;99.90
26621;DHT22;14253;44.840;10.444;2022-07-23T10:19:45;37.60;99.90
26621;DHT22;14253;44.840;10.444;2022-07-23T10:22:14;37.50;99.90
26621;DHT22;14253;44.840;10.444;2022-07-23T10:30:10;37.10;99.90
26621;DHT22;14253;44.840;10.444;2022-07-23T10:32:45;37.20;99.90
26621;DHT22;14253;44.840;10.444;2022-07-23T10:35:24;37.10;99.90
26621;DHT22;14253;44.840;10.444;2022-07-23T10:37:55;37.00;99.90
26621;DHT22;14253;44.840;10.444;2022-07-23T10:40:23;37.20;99.90
26621;DHT22;14253;44.840;10.444;2022-07-23T10:42:50;37.50;99.90
26621;DHT22;14253;44.840;10.444;2022-07-23T10:45:25;37.40;99.90
26621;DHT22;14253;44.840;10.444;2022-07-23T10:47:51;37.20;99.90
26621;DHT22;14253;44.840;10.444;2022-07-23T10:58:01;37.60;99.90
26621;DHT22;14253;44.840;10.444;2022-07-23T11:00:29;37.60;99.90
26621;DHT22;14253;44.840;10.444;2022-07-23T11:02:57;37.50;99.90
26621;DHT22;14253;44.840;10.444;2022-07-23T11:05:41;37.60;99.90
26621;DHT22;14253;44.840;10.444;2022-07-23T11:10:43;37.50;99.90
26621;DHT22;14253;44.840;10.444;2022-07-23T11:24:06;38.50;99.90
26621;DHT22;14253;44.840;10.444;2022-07-23T11:26:57;38.40;99.90
26621;DHT22;14253;44.840;10.444;2022-07-23T11:36:56;38.40;99.90
26621;DHT22;14253;44.840;10.444;2022-07-23T11:39:25;38.50;99.90
26621;DHT22;14253;44.840;10.444;2022-07-23T11:41:52;38.40;99.90
26621;DHT22;14253;44.840;10.444;2022-07-23T11:44:30;38.50;99.90
26621;DHT22;14253;44.840;10.444;2022-07-23T11:46:58;38.80;99.90
26621;DHT22;14253;44.840;10.444;2022-07-23T11:49:25;39.00;99.90
26621;DHT22;14253;44.840;10.444;2022-07-23T11:54:32;39.10;99.90
26621;DHT22;14253;44.840;10.444;2022-07-23T11:56:59;38.70;99.90
26621;DHT22;14253;44.840;10.444;2022-07-23T11:59:27;38.50;99.90
26621;DHT22;14253;44.840;10.444;2022-07-23T12:02:02;38.40;99.90
26621;DHT22;14253;44.840;10.444;2022-07-23T12:04:40;38.60;99.90
26621;DHT22;14253;44.840;10.444;2022-07-23T12:10:20;39.00;99.90
26621;DHT22;14253;44.840;10.444;2022-07-23T12:13:00;39.20;99.90
26621;DHT22;14253;44.840;10.444;2022-07-23T12:15:35;39.70;99.90
26621;DHT22;14253;44.840;10.444;2022-07-23T12:18:05;39.90;99.90
26621;DHT22;14253;44.840;10.444;2022-07-23T12:20:34;39.60;99.90
26621;DHT22;14253;44.840;10.444;2022-07-23T12:23:02;39.40;99.90
26621;DHT22;14253;44.840;10.444;2022-07-23T12:25:31;39.40;99.90
26621;DHT22;14253;44.840;10.444;2022-07-23T12:28:10;39.10;99.90
26621;DHT22;14253;44.840;10.444;2022-07-23T12:30:40;39.10;99.90
26621;DHT22;14253;44.840;10.444;2022-07-23T12:33:09;39.00;99.90
26621;DHT22;14253;44.840;10.444;2022-07-23T12:38:07;39.30;99.90
26621;DHT22;14253;44.840;10.444;2022-07-23T12:40:48;39.40;99.90
26621;DHT22;14253;44.840;10.444;2022-07-23T12:43:29;39.50;99.90
26621;DHT22;14253;44.840;10.444;2022-07-23T12:46:11;39.60;99.90
26621;DHT22;14253;44.840;10.444;2022-07-23T12:53:56;39.60;99.90
26621;DHT22;14253;44.840;10.444;2022-07-23T12:56:28;39.90;99.90
26621;DHT22;14253;44.840;10.444;2022-07-23T12:58:57;39.90;99.90
26621;DHT22;14253;44.840;10.444;2022-07-23T13:01:25;39.80;99.90
26621;DHT22;14253;44.840;10.444;2022-07-23T13:06:24;40.20;99.90
26621;DHT22;14253;44.840;10.444;2022-07-23T13:08:50;40.10;99.90
26621;DHT22;14253;44.840;10.444;2022-07-23T13:11:16;39.70;99.90
26621;DHT22;14253;44.840;10.444;2022-07-23T13:13:42;39.50;99.90
26621;DHT22;14253;44.840;10.444;2022-07-23T13:16:09;39.50;99.90
26621;DHT22;14253;44.840;10.444;2022-07-23T13:18:35;39.30;99.90
26621;DHT22;14253;44.840;10.444;2022-07-23T13:21:01;39.60;99.90
26621;DHT22;14253;44.840;10.444;2022-07-23T13:23:27;39.80;99.90
26621;DHT22;14253;44.840;10.444;2022-07-23T13:25:54;40.00;99.90
26621;DHT22;14253;44.840;10.444;2022-07-23T13:28:22;40.20;99.90
26621;DHT22;14253;44.840;10.444;2022-07-23T13:30:50;40.10;99.90
26621;DHT22;14253;44.840;10.444;2022-07-23T13:33:18;39.70;99.90
26621;DHT22;14253;44.840;10.444;2022-07-23T13:35:44;39.20;99.90
26621;DHT22;14253;44.840;10.444;2022-07-23T13:38:11;39.10;99.90
26621;DHT22;14253;44.840;10.444;2022-07-23T13:40:39;38.80;99.90
26621;DHT22;14253;44.840;10.444;2022-07-23T13:43:06;39.00;99.90
26621;DHT22;14253;44.840;10.444;2022-07-23T13:45:33;39.40;99.90
26621;DHT22;14253;44.840;10.444;2022-07-23T13:48:00;39.70;99.90
26621;DHT22;14253;44.840;10.444;2022-07-23T13:50:26;39.30;99.90
26621;DHT22;14253;44.840;10.444;2022-07-23T13:52:52;39.10;99.90
26621;DHT22;14253;44.840;10.444;2022-07-23T13:55:18;39.00;99.90
26621;DHT22;14253;44.840;10.444;2022-07-23T13:57:44;39.20;99.90
26621;DHT22;14253;44.840;10.444;2022-07-23T14:00:12;39.60;99.90
26621;DHT22;14253;44.840;10.444;2022-07-23T14:02:39;39.50;99.90
26621;DHT22;14253;44.840;10.444;2022-07-23T14:05:08;39.50;99.90
26621;DHT22;14253;44.840;10.444;2022-07-23T14:07:36;39.90;99.90
26621;DHT22;14253;44.840;10.444;2022-07-23T14:10:06;39.90;99.90
26621;DHT22;14253;44.840;10.444;2022-07-23T14:12:33;40.00;99.90
26621;DHT22;14253;44.840;10.444;2022-07-23T14:14:59;40.30;99.90
26621;DHT22;14253;44.840;10.444;2022-07-23T14:17:25;40.10;99.90
26621;DHT22;14253;44.840;10.444;2022-07-23T14:19:51;39.90;99.90
26621;DHT22;14253;44.840;10.444;2022-07-23T14:22:17;39.30;99.90
26621;DHT22;14253;44.840;10.444;2022-07-23T14:24:43;39.20;99.90
26621;DHT22;14253;44.840;10.444;2022-07-23T14:27:09;38.70;99.90
26621;DHT22;14253;44.840;10.444;2022-07-23T14:29:35;38.40;99.90
26621;DHT22;14253;44.840;10.444;2022-07-23T14:32:02;38.30;99.90
26621;DHT22;14253;44.840;10.444;2022-07-23T14:34:29;38.10;99.90
26621;DHT22;14253;44.840;10.444;2022-07-23T14:36:55;38.00;99.90
26621;DHT22;14253;44.840;10.444;2022-07-23T14:39:21;37.80;99.90
26621;DHT22;14253;44.840;10.444;2022-07-23T14:41:47;37.70;99.90
26621;DHT22;14253;44.840;10.444;2022-07-23T14:44:13;37.60;99.90
26621;DHT22;14253;44.840;10.444;2022-07-23T14:46:40;37.60;99.90
26621;DHT22;14253;44.840;10.444;2022-07-23T14:49:06;38.00;99.90
26621;DHT22;14253;44.840;10.444;2022-07-23T14:51:32;38.00;99.90
26621;DHT22;14253;44.840;10.444;2022-07-23T14:53:58;38.20;99.90
26621;DHT22;14253;44.840;10.444;2022-07-23T14:56:24;38.20;99.90
26621;DHT22;14253;44.840;10.444;2022-07-23T14:58:50;38.40;99.90
26621;DHT22;14253;44.840;10.444;2022-07-23T15:01:16;38.40;99.90
26621;DHT22;14253;44.840;10.444;2022-07-23T15:03:42;38.20;99.90
26621;DHT22;14253;44.840;10.444;2022-07-23T15:06:08;38.20;99.90
26621;DHT22;14253;44.840;10.444;2022-07-23T15:08:34;38.40;99.90
26621;DHT22;14253;44.840;10.444;2022-07-23T15:11:00;38.80;99.90
26621;DHT22;14253;44.840;10.444;2022-07-23T15:13:26;38.70;99.90
26621;DHT22;14253;44.840;10.444;2022-07-23T15:15:52;38.50;99.90
26621;DHT22;14253;44.840;10.444;2022-07-23T15:18:18;38.30;99.90
26621;DHT22;14253;44.840;10.444;2022-07-23T15:20:44;38.00;99.90
26621;DHT22;14253;44.840;10.444;2022-07-23T15:23:10;37.60;99.90
26621;DHT22;14253;44.840;10.444;2022-07-23T15:25:36;37.40;99.90
26621;DHT22;14253;44.840;10.444;2022-07-23T15:28:02;37.10;99.90
26621;DHT22;14253;44.840;10.444;2022-07-23T15:30:29;37.10;99.90
26621;DHT22;14253;44.840;10.444;2022-07-23T15:32:55;37.00;99.90
26621;DHT22;14253;44.840;10.444;2022-07-23T15:35:21;37.10;99.90
26621;DHT22;14253;44.840;10.444;2022-07-23T15:37:47;37.10;99.90
26621;DHT22;14253;44.840;10.444;2022-07-23T15:40:13;37.20;99.90
26621;DHT22;14253;44.840;10.444;2022-07-23T15:42:39;37.20;99.90
26621;DHT22;14253;44.840;10.444;2022-07-23T15:45:05;37.30;99.90
26621;DHT22;14253;44.840;10.444;2022-07-23T15:47:31;37.50;99.90
26621;DHT22;14253;44.840;10.444;2022-07-23T15:49:57;37.50;99.90
26621;DHT22;14253;44.840;10.444;2022-07-23T15:52:23;37.50;99.90
26621;DHT22;14253;44.840;10.444;2022-07-23T15:54:50;38.00;99.90
26621;DHT22;14253;44.840;10.444;2022-07-23T15:57:16;38.30;99.90
26621;DHT22;14253;44.840;10.444;2022-07-23T15:59:41;38.60;99.90
26621;DHT22;14253;44.840;10.444;2022-07-23T16:02:08;38.60;99.90
26621;DHT22;14253;44.840;10.444;2022-07-23T16:04:34;38.10;99.90
26621;DHT22;14253;44.840;10.444;2022-07-23T16:07:00;37.60;99.90
26621;DHT22;14253;44.840;10.444;2022-07-23T16:09:26;37.70;99.90
26621;DHT22;14253;44.840;10.444;2022-07-23T16:11:52;37.40;99.90